sensor_id;sensor_type;location;lat;lon;timestamp;pressure;altitude;pressure_sealevel;temperature;humidity
44385;BME280;30101;32.778;34.994;2023-02-12T00:02:58;98008.91;;;10.28;56.56
44385;BME280;30101;32.778;34.994;2023-02-12T00:08:01;98013.56;;;10.06;57.11
44385;BME280;30101;32.778;34.994;2023-02-12T00:13:05;98010.72;;;9.73;58.42
44385;BME280;30101;32.778;34.994;2023-02-12T00:18:08;98005.69;;;9.43;59.04
44385;BME280;30101;32.778;34.994;2023-02-12T00:23:11;97997.31;;;9.18;60.39
44385;BME280;30101;32.778;34.994;2023-02-12T00:28:15;97984.75;;;9.06;60.29
44385;BME280;30101;32.778;34.994;2023-02-12T00:33:18;97978.16;;;9.02;60.63
44385;BME280;30101;32.778;34.994;2023-02-12T00:38:21;97956.84;;;9.02;60.95
44385;BME280;30101;32.778;34.994;2023-02-12T00:43:25;97954.81;;;9.04;61.40
44385;BME280;30101;32.778;34.994;2023-02-12T00:48:28;97955.63;;;9.04;62.00
44385;BME280;30101;32.778;34.994;2023-02-12T00:53:31;97942.31;;;9.04;61.88
44385;BME280;30101;32.778;34.994;2023-02-12T00:58:35;97945.38;;;9.01;61.90
44385;BME280;30101;32.778;34.994;2023-02-12T01:03:38;97951.72;;;9.00;62.01
44385;BME280;30101;32.778;34.994;2023-02-12T01:08:41;97967.06;;;8.98;62.41
44385;BME280;30101;32.778;34.994;2023-02-12T01:13:44;97964.19;;;8.93;62.63
44385;BME280;30101;32.778;34.994;2023-02-12T01:18:48;97989.13;;;8.92;63.19
44385;BME280;30101;32.778;34.994;2023-02-12T01:23:52;97987.69;;;8.89;62.97
44385;BME280;30101;32.778;34.994;2023-02-12T01:28:56;97992.81;;;8.91;62.61
44385;BME280;30101;32.778;34.994;2023-02-12T01:34:01;98000.81;;;8.91;62.97
44385;BME280;30101;32.778;34.994;2023-02-12T01:39:05;98013.00;;;8.79;63.09
44385;BME280;30101;32.778;34.994;2023-02-12T01:44:22;98016.91;;;8.55;63.53
44385;BME280;30101;32.778;34.994;2023-02-12T01:49:39;98022.28;;;8.25;63.99
44385;BME280;30101;32.778;34.994;2023-02-12T01:54:43;98036.75;;;8.01;64.95
44385;BME280;30101;32.778;34.994;2023-02-12T01:59:49;98038.16;;;7.82;65.63
44385;BME280;30101;32.778;34.994;2023-02-12T02:04:59;98043.66;;;7.66;65.66
44385;BME280;30101;32.778;34.994;2023-02-12T02:10:05;98047.34;;;7.50;66.08
44385;BME280;30101;32.778;34.994;2023-02-12T02:15:09;98036.78;;;7.27;66.61
44385;BME280;30101;32.778;34.994;2023-02-12T02:20:48;98008.75;;;6.95;68.03
44385;BME280;30101;32.778;34.994;2023-02-12T02:31:36;98056.59;;;6.87;68.03
44385;BME280;30101;32.778;34.994;2023-02-12T02:36:47;98046.31;;;6.84;67.94
44385;BME280;30101;32.778;34.994;2023-02-12T02:42:36;98045.50;;;6.84;68.56
44385;BME280;30101;32.778;34.994;2023-02-12T02:47:49;98052.31;;;6.86;68.68
44385;BME280;30101;32.778;34.994;2023-02-12T02:53:15;98045.47;;;6.92;68.62
44385;BME280;30101;32.778;34.994;2023-02-12T02:58:30;98050.56;;;6.93;68.71
44385;BME280;30101;32.778;34.994;2023-02-12T03:03:39;98057.88;;;6.91;69.09
44385;BME280;30101;32.778;34.994;2023-02-12T03:08:51;98064.91;;;6.84;69.70
44385;BME280;30101;32.778;34.994;2023-02-12T03:14:20;98061.69;;;6.74;70.23
44385;BME280;30101;32.778;34.994;2023-02-12T03:19:29;98059.03;;;6.74;69.87
44385;BME280;30101;32.778;34.994;2023-02-12T03:24:40;98063.97;;;6.77;70.70
44385;BME280;30101;32.778;34.994;2023-02-12T03:29:46;98060.91;;;6.65;70.26
44385;BME280;30101;32.778;34.994;2023-02-12T03:34:50;98059.63;;;6.38;70.48
44385;BME280;30101;32.778;34.994;2023-02-12T03:40:20;98064.16;;;6.30;71.54
44385;BME280;30101;32.778;34.994;2023-02-12T03:51:04;98046.06;;;6.33;70.92
44385;BME280;30101;32.778;34.994;2023-02-12T03:56:18;98055.25;;;6.22;72.36
44385;BME280;30101;32.778;34.994;2023-02-12T04:01:23;98063.59;;;6.11;72.52
44385;BME280;30101;32.778;34.994;2023-02-12T04:06:27;98058.00;;;6.06;72.14
44385;BME280;30101;32.778;34.994;2023-02-12T04:17:14;98078.88;;;6.01;72.83
44385;BME280;30101;32.778;34.994;2023-02-12T04:27:41;98083.09;;;6.18;72.63
44385;BME280;30101;32.778;34.994;2023-02-12T04:32:52;98081.41;;;6.26;72.38
44385;BME280;30101;32.778;34.994;2023-02-12T04:38:11;98080.91;;;6.30;72.37
44385;BME280;30101;32.778;34.994;2023-02-12T04:43:31;98072.94;;;6.30;72.21
44385;BME280;30101;32.778;34.994;2023-02-12T04:48:50;98078.53;;;6.35;72.47
44385;BME280;30101;32.778;34.994;2023-02-12T04:53:54;98073.53;;;6.40;72.06
44385;BME280;30101;32.778;34.994;2023-02-12T04:58:57;98088.22;;;6.51;71.74
44385;BME280;30101;32.778;34.994;2023-02-12T05:04:00;98091.47;;;6.61;72.15
44385;BME280;30101;32.778;34.994;2023-02-12T05:09:05;98095.81;;;6.77;71.14
44385;BME280;30101;32.778;34.994;2023-02-12T05:14:08;98096.41;;;6.87;71.75
44385;BME280;30101;32.778;34.994;2023-02-12T05:19:11;98102.13;;;6.99;70.58
44385;BME280;30101;32.778;34.994;2023-02-12T05:24:17;98087.44;;;7.11;70.90
44385;BME280;30101;32.778;34.994;2023-02-12T05:29:20;98110.97;;;7.29;70.68
44385;BME280;30101;32.778;34.994;2023-02-12T05:34:24;98115.31;;;7.45;69.74
44385;BME280;30101;32.778;34.994;2023-02-12T05:39:27;98124.97;;;7.61;69.38
44385;BME280;30101;32.778;34.994;2023-02-12T05:44:30;98135.22;;;7.78;69.28
44385;BME280;30101;32.778;34.994;2023-02-12T05:49:33;98151.81;;;7.95;69.28
44385;BME280;30101;32.778;34.994;2023-02-12T05:54:36;98154.00;;;8.21;68.43
44385;BME280;30101;32.778;34.994;2023-02-12T05:59:40;98147.75;;;8.80;67.93
44385;BME280;30101;32.778;34.994;2023-02-12T06:04:43;98158.16;;;9.17;66.96
44385;BME280;30101;32.778;34.994;2023-02-12T06:09:50;98164.63;;;9.30;66.38
44385;BME280;30101;32.778;34.994;2023-02-12T06:14:53;98172.63;;;9.30;65.86
44385;BME280;30101;32.778;34.994;2023-02-12T06:19:56;98169.53;;;9.26;65.59
44385;BME280;30101;32.778;34.994;2023-02-12T06:24:59;98178.97;;;9.29;65.66
44385;BME280;30101;32.778;34.994;2023-02-12T06:30:02;98191.47;;;9.28;65.21
44385;BME280;30101;32.778;34.994;2023-02-12T06:35:05;98200.22;;;9.22;65.35
44385;BME280;30101;32.778;34.994;2023-02-12T06:40:08;98205.75;;;9.21;65.60
44385;BME280;30101;32.778;34.994;2023-02-12T06:45:12;98211.97;;;9.06;65.63
44385;BME280;30101;32.778;34.994;2023-02-12T06:50:15;98213.53;;;9.01;65.52
44385;BME280;30101;32.778;34.994;2023-02-12T06:55:19;98224.81;;;9.03;64.96
44385;BME280;30101;32.778;34.994;2023-02-12T07:00:22;98225.84;;;9.02;65.39
44385;BME280;30101;32.778;34.994;2023-02-12T07:05:25;98213.91;;;8.98;65.26
44385;BME280;30101;32.778;34.994;2023-02-12T07:10:29;98222.53;;;9.00;65.19
44385;BME280;30101;32.778;34.994;2023-02-12T07:15:32;98211.75;;;9.08;65.02
44385;BME280;30101;32.778;34.994;2023-02-12T07:20:35;98214.00;;;9.26;64.64
44385;BME280;30101;32.778;34.994;2023-02-12T07:25:38;98210.69;;;9.45;64.16
44385;BME280;30101;32.778;34.994;2023-02-12T07:30:41;98210.09;;;9.71;63.41
44385;BME280;30101;32.778;34.994;2023-02-12T07:35:45;98197.22;;;10.09;62.87
44385;BME280;30101;32.778;34.994;2023-02-12T07:40:48;98203.94;;;10.26;61.41
44385;BME280;30101;32.778;34.994;2023-02-12T07:45:51;98196.53;;;10.29;61.53
44385;BME280;30101;32.778;34.994;2023-02-12T07:50:54;98196.34;;;10.30;61.34
44385;BME280;30101;32.778;34.994;2023-02-12T08:01:28;98201.28;;;10.33;61.82
44385;BME280;30101;32.778;34.994;2023-02-12T08:06:34;98186.16;;;10.47;61.22
44385;BME280;30101;32.778;34.994;2023-02-12T08:11:39;98191.97;;;10.57;60.94
44385;BME280;30101;32.778;34.994;2023-02-12T08:16:44;98189.13;;;10.72;60.43
44385;BME280;30101;32.778;34.994;2023-02-12T08:21:52;98184.28;;;10.89;59.92
44385;BME280;30101;32.778;34.994;2023-02-12T08:26:55;98182.22;;;10.97;59.35
44385;BME280;30101;32.778;34.994;2023-02-12T08:32:00;98180.00;;;11.07;59.39
44385;BME280;30101;32.778;34.994;2023-02-12T08:37:05;98175.28;;;11.16;59.19
44385;BME280;30101;32.778;34.994;2023-02-12T08:42:08;98180.63;;;11.29;59.13
44385;BME280;30101;32.778;34.994;2023-02-12T08:47:12;98182.91;;;11.39;59.07
44385;BME280;30101;32.778;34.994;2023-02-12T08:52:15;98180.25;;;11.32;58.60
44385;BME280;30101;32.778;34.994;2023-02-12T08:57:18;98179.44;;;11.39;58.39
44385;BME280;30101;32.778;34.994;2023-02-12T09:02:21;98183.75;;;11.53;58.39
44385;BME280;30101;32.778;34.994;2023-02-12T09:07:25;98176.97;;;11.64;58.46
44385;BME280;30101;32.778;34.994;2023-02-12T09:12:28;98184.38;;;11.81;58.52
44385;BME280;30101;32.778;34.994;2023-02-12T09:17:31;98177.75;;;12.10;58.05
44385;BME280;30101;32.778;34.994;2023-02-12T09:22:34;98183.25;;;12.35;57.60
44385;BME280;30101;32.778;34.994;2023-02-12T09:27:38;98180.09;;;12.52;57.17
44385;BME280;30101;32.778;34.994;2023-02-12T09:32:41;98177.34;;;12.72;57.51
44385;BME280;30101;32.778;34.994;2023-02-12T09:37:44;98170.28;;;12.84;56.73
44385;BME280;30101;32.778;34.994;2023-02-12T09:48:06;98167.34;;;12.92;56.48
44385;BME280;30101;32.778;34.994;2023-02-12T09:53:16;98171.31;;;12.83;56.64
44385;BME280;30101;32.778;34.994;2023-02-12T09:58:33;98172.50;;;12.87;56.63
44385;BME280;30101;32.778;34.994;2023-02-12T10:03:37;98161.59;;;12.82;56.63
44385;BME280;30101;32.778;34.994;2023-02-12T10:25:25;98163.78;;;12.60;56.29
44385;BME280;30101;32.778;34.994;2023-02-12T10:30:47;98156.25;;;12.82;56.02
44385;BME280;30101;32.778;34.994;2023-02-12T10:36:42;98157.84;;;12.96;55.68
44385;BME280;30101;32.778;34.994;2023-02-12T10:41:26;98151.47;;;12.90;55.60
44385;BME280;30101;32.778;34.994;2023-02-12T10:46:30;98146.03;;;12.65;55.93
44385;BME280;30101;32.778;34.994;2023-02-12T10:51:57;98136.69;;;12.36;56.58
44385;BME280;30101;32.778;34.994;2023-02-12T11:02:26;98131.16;;;12.25;57.00
44385;BME280;30101;32.778;34.994;2023-02-12T11:07:45;98137.56;;;12.17;57.11
44385;BME280;30101;32.778;34.994;2023-02-12T11:12:49;98130.00;;;12.07;56.62
44385;BME280;30101;32.778;34.994;2023-02-12T11:18:02;98119.47;;;12.06;57.36
44385;BME280;30101;32.778;34.994;2023-02-12T11:23:26;98109.81;;;12.05;57.33
44385;BME280;30101;32.778;34.994;2023-02-12T11:28:31;98104.25;;;12.06;57.61
44385;BME280;30101;32.778;34.994;2023-02-12T11:33:36;98108.78;;;12.06;56.90
44385;BME280;30101;32.778;34.994;2023-02-12T11:38:51;98115.38;;;12.03;57.26
44385;BME280;30101;32.778;34.994;2023-02-12T11:43:56;98113.75;;;12.02;57.30
44385;BME280;30101;32.778;34.994;2023-02-12T11:49:00;98122.16;;;12.06;56.94
44385;BME280;30101;32.778;34.994;2023-02-12T11:54:03;98116.66;;;12.01;57.22
44385;BME280;30101;32.778;34.994;2023-02-12T11:59:23;98133.72;;;12.00;56.92
44385;BME280;30101;32.778;34.994;2023-02-12T12:04:29;98136.00;;;11.96;57.28
44385;BME280;30101;32.778;34.994;2023-02-12T12:09:45;98131.88;;;11.94;57.41
44385;BME280;30101;32.778;34.994;2023-02-12T12:15:37;98136.41;;;11.93;57.31
44385;BME280;30101;32.778;34.994;2023-02-12T12:20:20;98142.75;;;12.05;57.33
44385;BME280;30101;32.778;34.994;2023-02-12T12:25:26;98148.75;;;12.07;57.16
44385;BME280;30101;32.778;34.994;2023-02-12T12:57:38;98158.03;;;11.92;58.00
44385;BME280;30101;32.778;34.994;2023-02-12T13:13:46;98159.63;;;12.06;58.80
44385;BME280;30101;32.778;34.994;2023-02-12T13:24:14;98167.22;;;12.22;58.86
44385;BME280;30101;32.778;34.994;2023-02-12T13:29:27;98159.94;;;12.42;58.32
44385;BME280;30101;32.778;34.994;2023-02-12T13:34:33;98166.16;;;12.30;58.81
44385;BME280;30101;32.778;34.994;2023-02-12T13:39:40;98162.28;;;12.19;59.03
44385;BME280;30101;32.778;34.994;2023-02-12T13:50:06;98177.34;;;12.13;59.28
44385;BME280;30101;32.778;34.994;2023-02-12T13:55:24;98181.84;;;12.13;59.29
44385;BME280;30101;32.778;34.994;2023-02-12T14:06:07;98191.53;;;12.21;59.63
44385;BME280;30101;32.778;34.994;2023-02-12T14:11:14;98192.75;;;12.18;59.44
44385;BME280;30101;32.778;34.994;2023-02-12T14:16:39;98205.34;;;12.04;59.69
44385;BME280;30101;32.778;34.994;2023-02-12T14:21:42;98218.50;;;11.79;60.00
44385;BME280;30101;32.778;34.994;2023-02-12T14:26:45;98219.94;;;11.69;60.35
44385;BME280;30101;32.778;34.994;2023-02-12T14:31:48;98231.69;;;11.81;59.86
44385;BME280;30101;32.778;34.994;2023-02-12T14:37:31;98231.91;;;12.06;59.91
44385;BME280;30101;32.778;34.994;2023-02-12T14:52:50;98233.53;;;11.74;60.53
44385;BME280;30101;32.778;34.994;2023-02-12T14:57:57;98242.56;;;11.53;60.99
44385;BME280;30101;32.778;34.994;2023-02-12T15:08:35;98250.09;;;11.16;61.07
44385;BME280;30101;32.778;34.994;2023-02-12T15:19:12;98254.75;;;10.88;61.61
44385;BME280;30101;32.778;34.994;2023-02-12T15:24:24;98269.88;;;10.74;61.35
44385;BME280;30101;32.778;34.994;2023-02-12T15:29:30;98265.28;;;10.61;62.26
44385;BME280;30101;32.778;34.994;2023-02-12T15:34:36;98270.56;;;10.48;62.25
44385;BME280;30101;32.778;34.994;2023-02-12T15:39:43;98279.75;;;10.39;62.30
44385;BME280;30101;32.778;34.994;2023-02-12T15:44:46;98289.56;;;10.32;62.28
44385;BME280;30101;32.778;34.994;2023-02-12T15:49:49;98297.06;;;10.21;62.39
44385;BME280;30101;32.778;34.994;2023-02-12T15:54:53;98297.22;;;10.13;63.06
44385;BME280;30101;32.778;34.994;2023-02-12T16:00:03;98296.34;;;10.06;62.68
44385;BME280;30101;32.778;34.994;2023-02-12T16:05:14;98304.66;;;9.96;63.17
44385;BME280;30101;32.778;34.994;2023-02-12T16:10:19;98299.47;;;9.88;63.11
44385;BME280;30101;32.778;34.994;2023-02-12T16:15:31;98310.91;;;9.82;64.04
44385;BME280;30101;32.778;34.994;2023-02-12T16:20:34;98303.66;;;9.76;64.18
44385;BME280;30101;32.778;34.994;2023-02-12T16:25:37;98317.81;;;9.77;63.55
44385;BME280;30101;32.778;34.994;2023-02-12T16:30:42;98324.19;;;9.76;63.91
44385;BME280;30101;32.778;34.994;2023-02-12T16:36:02;98322.91;;;9.71;63.51
44385;BME280;30101;32.778;34.994;2023-02-12T16:41:14;98329.63;;;9.67;64.16
44385;BME280;30101;32.778;34.994;2023-02-12T16:46:18;98334.53;;;9.64;64.22
44385;BME280;30101;32.778;34.994;2023-02-12T16:51:32;98331.84;;;9.64;64.11
44385;BME280;30101;32.778;34.994;2023-02-12T16:56:36;98338.19;;;9.63;64.45
44385;BME280;30101;32.778;34.994;2023-02-12T17:01:40;98347.38;;;9.60;64.46
44385;BME280;30101;32.778;34.994;2023-02-12T17:06:43;98342.66;;;9.56;64.60
44385;BME280;30101;32.778;34.994;2023-02-12T17:11:46;98353.66;;;9.53;64.66
44385;BME280;30101;32.778;34.994;2023-02-12T17:16:49;98362.50;;;9.53;64.67
44385;BME280;30101;32.778;34.994;2023-02-12T17:21:52;98355.50;;;9.52;64.71
44385;BME280;30101;32.778;34.994;2023-02-12T17:26:56;98366.19;;;9.52;64.96
44385;BME280;30101;32.778;34.994;2023-02-12T17:32:00;98358.38;;;9.51;65.35
44385;BME280;30101;32.778;34.994;2023-02-12T17:37:04;98361.22;;;9.49;65.27
44385;BME280;30101;32.778;34.994;2023-02-12T17:42:07;98373.34;;;9.52;65.72
44385;BME280;30101;32.778;34.994;2023-02-12T17:47:11;98372.53;;;9.51;64.98
44385;BME280;30101;32.778;34.994;2023-02-12T17:52:14;98368.38;;;9.49;65.30
44385;BME280;30101;32.778;34.994;2023-02-12T17:57:17;98373.06;;;9.46;65.13
44385;BME280;30101;32.778;34.994;2023-02-12T18:02:20;98376.97;;;9.44;65.94
44385;BME280;30101;32.778;34.994;2023-02-12T18:07:24;98379.97;;;9.41;65.64
44385;BME280;30101;32.778;34.994;2023-02-12T18:12:29;98380.19;;;9.39;65.99
44385;BME280;30101;32.778;34.994;2023-02-12T18:17:33;98384.94;;;9.44;65.90
44385;BME280;30101;32.778;34.994;2023-02-12T18:22:37;98388.06;;;9.48;66.21
44385;BME280;30101;32.778;34.994;2023-02-12T18:27:39;98391.75;;;9.46;66.20
44385;BME280;30101;32.778;34.994;2023-02-12T18:32:42;98388.44;;;9.44;66.27
44385;BME280;30101;32.778;34.994;2023-02-12T18:37:46;98394.13;;;9.41;66.10
44385;BME280;30101;32.778;34.994;2023-02-12T18:42:50;98384.88;;;9.37;66.12
44385;BME280;30101;32.778;34.994;2023-02-12T18:47:54;98378.06;;;9.35;66.85
44385;BME280;30101;32.778;34.994;2023-02-12T18:52:57;98387.28;;;9.32;66.21
44385;BME280;30101;32.778;34.994;2023-02-12T18:58:00;98389.31;;;9.30;66.36
44385;BME280;30101;32.778;34.994;2023-02-12T19:03:03;98394.78;;;9.29;66.67
44385;BME280;30101;32.778;34.994;2023-02-12T19:08:07;98397.03;;;9.25;66.25
44385;BME280;30101;32.778;34.994;2023-02-12T19:13:10;98400.25;;;9.21;66.35
44385;BME280;30101;32.778;34.994;2023-02-12T19:18:13;98400.59;;;9.17;66.37
44385;BME280;30101;32.778;34.994;2023-02-12T19:23:16;98404.47;;;9.15;66.09
44385;BME280;30101;32.778;34.994;2023-02-12T19:28:19;98402.19;;;9.12;66.39
44385;BME280;30101;32.778;34.994;2023-02-12T19:33:23;98389.03;;;9.10;66.77
44385;BME280;30101;32.778;34.994;2023-02-12T19:38:27;98390.22;;;9.08;66.55
44385;BME280;30101;32.778;34.994;2023-02-12T19:43:30;98399.25;;;9.07;65.83
44385;BME280;30101;32.778;34.994;2023-02-12T19:48:34;98395.91;;;9.05;66.02
44385;BME280;30101;32.778;34.994;2023-02-12T19:53:38;98394.25;;;9.04;66.07
44385;BME280;30101;32.778;34.994;2023-02-12T19:58:41;98397.31;;;9.01;66.01
44385;BME280;30101;32.778;34.994;2023-02-12T20:03:47;98393.53;;;8.95;65.98
44385;BME280;30101;32.778;34.994;2023-02-12T20:08:50;98395.72;;;8.91;65.72
44385;BME280;30101;32.778;34.994;2023-02-12T20:13:54;98395.09;;;8.89;65.66
44385;BME280;30101;32.778;34.994;2023-02-12T20:19:01;98395.47;;;8.86;65.43
44385;BME280;30101;32.778;34.994;2023-02-12T20:24:06;98395.66;;;8.85;65.52
44385;BME280;30101;32.778;34.994;2023-02-12T20:29:09;98381.06;;;8.81;65.33
44385;BME280;30101;32.778;34.994;2023-02-12T20:34:14;98381.31;;;8.86;65.18
44385;BME280;30101;32.778;34.994;2023-02-12T20:39:19;98380.34;;;8.87;64.56
44385;BME280;30101;32.778;34.994;2023-02-12T20:44:22;98382.81;;;8.88;64.13
44385;BME280;30101;32.778;34.994;2023-02-12T20:49:26;98384.09;;;8.93;64.35
44385;BME280;30101;32.778;34.994;2023-02-12T20:54:29;98382.25;;;8.93;64.28
44385;BME280;30101;32.778;34.994;2023-02-12T20:59:32;98388.56;;;8.92;63.77
44385;BME280;30101;32.778;34.994;2023-02-12T21:04:35;98389.78;;;8.89;63.71
44385;BME280;30101;32.778;34.994;2023-02-12T21:09:38;98393.47;;;8.88;63.67
44385;BME280;30101;32.778;34.994;2023-02-12T21:14:41;98392.44;;;8.89;63.75
44385;BME280;30101;32.778;34.994;2023-02-12T21:19:45;98385.28;;;8.90;63.24
44385;BME280;30101;32.778;34.994;2023-02-12T21:24:48;98397.75;;;8.89;63.53
44385;BME280;30101;32.778;34.994;2023-02-12T21:29:51;98397.94;;;8.88;63.36
44385;BME280;30101;32.778;34.994;2023-02-12T21:34:54;98390.97;;;8.87;63.14
44385;BME280;30101;32.778;34.994;2023-02-12T21:39:57;98392.16;;;8.84;63.16
44385;BME280;30101;32.778;34.994;2023-02-12T21:45:00;98392.34;;;8.83;63.20
44385;BME280;30101;32.778;34.994;2023-02-12T21:50:05;98396.84;;;8.82;63.04
44385;BME280;30101;32.778;34.994;2023-02-12T21:55:08;98396.22;;;8.80;63.14
44385;BME280;30101;32.778;34.994;2023-02-12T22:00:12;98396.03;;;8.82;62.55
44385;BME280;30101;32.778;34.994;2023-02-12T22:05:16;98393.38;;;8.82;62.50
44385;BME280;30101;32.778;34.994;2023-02-12T22:10:20;98395.19;;;8.81;62.78
44385;BME280;30101;32.778;34.994;2023-02-12T22:15:23;98394.38;;;8.81;63.14
44385;BME280;30101;32.778;34.994;2023-02-12T22:20:26;98392.34;;;8.83;62.33
44385;BME280;30101;32.778;34.994;2023-02-12T22:25:29;98398.50;;;8.83;62.25
44385;BME280;30101;32.778;34.994;2023-02-12T22:30:34;98392.16;;;8.84;62.39
44385;BME280;30101;32.778;34.994;2023-02-12T22:35:38;98397.47;;;8.84;62.29
44385;BME280;30101;32.778;34.994;2023-02-12T22:40:42;98401.78;;;8.85;62.33
44385;BME280;30101;32.778;34.994;2023-02-12T22:45:46;98397.66;;;8.83;62.32
44385;BME280;30101;32.778;34.994;2023-02-12T22:50:49;98387.03;;;8.83;62.33
44385;BME280;30101;32.778;34.994;2023-02-12T22:55:53;98388.03;;;8.82;61.76
44385;BME280;30101;32.778;34.994;2023-02-12T23:00:56;98388.22;;;8.80;62.00
44385;BME280;30101;32.778;34.994;2023-02-12T23:06:01;98381.41;;;8.78;61.93
44385;BME280;30101;32.778;34.994;2023-02-12T23:11:04;98383.63;;;8.74;61.94
44385;BME280;30101;32.778;34.994;2023-02-12T23:16:10;98377.66;;;8.72;62.10
44385;BME280;30101;32.778;34.994;2023-02-12T23:21:13;98378.66;;;8.71;62.06
44385;BME280;30101;32.778;34.994;2023-02-12T23:26:16;98382.69;;;8.67;61.97
44385;BME280;30101;32.778;34.994;2023-02-12T23:31:19;98373.03;;;8.66;62.25
44385;BME280;30101;32.778;34.994;2023-02-12T23:36:24;98370.38;;;8.66;61.97
44385;BME280;30101;32.778;34.994;2023-02-12T23:41:27;98377.34;;;8.67;61.96
44385;BME280;30101;32.778;34.994;2023-02-12T23:46:30;98379.84;;;8.69;61.97
44385;BME280;30101;32.778;34.994;2023-02-12T23:51:34;98384.38;;;8.68;61.92
44385;BME280;30101;32.778;34.994;2023-02-12T23:56:37;98386.19;;;8.68;61.75
